Time;durP1;ratioP1;P1;durP2;ratioP2;P2;SDS_P1;SDS_P2;PMS_P1;PMS_P2;Temp;Humidity;BMP_temperature;BMP_pressure;BME280_temperature;BME280_humidity;BME280_pressure;Samples;Min_cycle;Max_cycle;Signal;HPM_P1;HPM_P2
2023/08/22 00:00:58;;;;;;;6.75;4.88;;;26.20;99.90;;;;;;4990891;28;20046;-81
2023/08/22 00:03:25;;;;;;;7.65;4.78;;;26.10;99.90;;;;;;4988117;28;20129;-81
2023/08/22 00:05:52;;;;;;;7.05;3.92;;;26.10;99.90;;;;;;4988423;28;20074;-82
2023/08/22 00:08:18;;;;;;;10.50;4.70;;;26.10;99.90;;;;;;4996125;28;20053;-81
2023/08/22 00:10:46;;;;;;;10.93;5.05;;;26.10;99.90;;;;;;4992439;28;20596;-80
2023/08/22 00:13:12;;;;;;;9.82;4.88;;;26.00;99.90;;;;;;4988689;28;20050;-80
2023/08/22 00:15:39;;;;;;;11.30;4.43;;;26.00;99.90;;;;;;4995757;28;20054;-81
2023/08/22 00:18:06;;;;;;;6.88;4.60;;;26.00;99.90;;;;;;4999480;28;20074;-81
2023/08/22 00:20:34;;;;;;;9.52;4.80;;;26.00;99.90;;;;;;4995738;28;20046;-81
2023/08/22 00:23:01;;;;;;;14.20;4.80;;;26.00;99.90;;;;;;5001198;28;20050;-81
2023/08/22 00:25:28;;;;;;;12.30;4.60;;;26.00;99.90;;;;;;4997789;28;20457;-81
2023/08/22 00:27:55;;;;;;;15.77;4.50;;;25.90;99.90;;;;;;4988021;28;20061;-81
2023/08/22 00:30:21;;;;;;;19.33;5.88;;;26.00;99.90;;;;;;4990235;28;20047;-81
2023/08/22 00:32:48;;;;;;;20.73;7.50;;;25.90;99.90;;;;;;4991341;28;20055;-81
2023/08/22 00:35:15;;;;;;;13.57;5.05;;;25.90;99.90;;;;;;4995366;28;20434;-81
2023/08/22 00:37:42;;;;;;;20.60;4.88;;;25.80;99.90;;;;;;4994605;28;20050;-81
2023/08/22 00:40:09;;;;;;;15.55;5.10;;;25.80;99.90;;;;;;4994157;28;20472;-80
2023/08/22 00:42:35;;;;;;;6.75;4.97;;;25.80;99.90;;;;;;4987411;28;20047;-80
2023/08/22 00:45:03;;;;;;;5.97;4.60;;;25.80;99.90;;;;;;4987024;28;20047;-81
2023/08/22 00:47:30;;;;;;;16.92;4.88;;;25.80;99.90;;;;;;4993291;28;20039;-81
2023/08/22 00:49:57;;;;;;;8.43;4.53;;;25.70;99.90;;;;;;4996255;28;20053;-81
2023/08/22 00:52:24;;;;;;;7.13;4.93;;;25.70;99.90;;;;;;4991281;28;20043;-80
2023/08/22 00:54:51;;;;;;;6.10;4.75;;;25.60;99.90;;;;;;4992394;28;20417;-80
2023/08/22 00:57:17;;;;;;;6.82;4.30;;;25.60;99.90;;;;;;4989590;28;20042;-81
2023/08/22 00:59:44;;;;;;;7.05;4.70;;;25.60;99.90;;;;;;4985589;28;20054;-81
2023/08/22 01:02:11;;;;;;;6.57;4.22;;;25.60;99.90;;;;;;4992184;28;20047;-80
2023/08/22 01:04:38;;;;;;;8.52;5.20;;;25.60;99.90;;;;;;4994007;28;20047;-80
2023/08/22 01:07:24;;;;;;;7.50;5.07;;;25.50;99.90;;;;;;4989356;28;20051;-80
2023/08/22 01:10:07;;;;;;;10.65;4.60;;;25.50;99.90;;;;;;4993863;28;20055;-80
2023/08/22 01:12:49;;;;;;;7.00;4.47;;;25.50;99.90;;;;;;4992203;28;20050;-80
2023/08/22 01:15:26;;;;;;;6.80;4.43;;;25.50;99.90;;;;;;4992193;28;20046;-80
2023/08/22 01:17:54;;;;;;;8.48;4.65;;;25.40;99.90;;;;;;4991775;28;20054;-80
2023/08/22 01:20:22;;;;;;;6.05;5.30;;;25.40;99.90;;;;;;4991994;28;20541;-81
2023/08/22 01:22:49;;;;;;;6.63;4.78;;;25.40;99.90;;;;;;4988103;28;20043;-80
2023/08/22 01:25:16;;;;;;;5.97;4.50;;;25.30;99.90;;;;;;4992169;28;20054;-80
2023/08/22 01:28:08;;;;;;;7.18;4.50;;;25.30;99.90;;;;;;4989455;28;20117;-80
2023/08/22 01:30:50;;;;;;;5.95;4.75;;;25.30;99.90;;;;;;4993036;28;20114;-80
2023/08/22 01:33:26;;;;;;;5.47;4.50;;;25.30;99.90;;;;;;4996500;28;20038;-81
2023/08/22 01:35:55;;;;;;;7.15;4.40;;;25.20;99.90;;;;;;4991308;28;20038;-80
2023/08/22 01:38:25;;;;;;;5.45;4.20;;;25.20;99.90;;;;;;5004493;28;20069;-80
2023/08/22 01:40:53;;;;;;;7.90;5.10;;;25.20;99.90;;;;;;4994842;28;20153;-80
2023/08/22 01:43:21;;;;;;;9.15;5.00;;;25.20;99.90;;;;;;4986720;28;20050;-80
2023/08/22 01:45:48;;;;;;;6.93;5.18;;;25.10;99.90;;;;;;4989223;28;20050;-80
2023/08/22 01:48:15;;;;;;;8.77;5.30;;;25.10;99.90;;;;;;4995376;28;20086;-80
2023/08/22 01:50:42;;;;;;;8.90;4.97;;;25.10;99.90;;;;;;4994862;28;20057;-81
2023/08/22 01:53:09;;;;;;;5.97;4.70;;;25.00;99.90;;;;;;4998352;28;20541;-81
2023/08/22 01:55:36;;;;;;;6.53;5.18;;;25.00;99.90;;;;;;4994292;28;20042;-80
2023/08/22 01:58:04;;;;;;;7.97;5.28;;;25.00;99.90;;;;;;4988310;28;20486;-80
2023/08/22 02:00:31;;;;;;;7.68;5.07;;;25.00;99.90;;;;;;4990348;28;20050;-80
2023/08/22 02:02:58;;;;;;;5.43;4.85;;;24.90;99.90;;;;;;4993277;28;20050;-80
2023/08/22 02:05:25;;;;;;;6.97;4.47;;;24.90;99.90;;;;;;4983663;28;20126;-80
2023/08/22 02:07:51;;;;;;;7.38;5.20;;;24.90;99.90;;;;;;4986546;28;20051;-80
2023/08/22 02:10:18;;;;;;;7.38;4.88;;;24.90;99.90;;;;;;4992158;28;20105;-80
2023/08/22 02:12:45;;;;;;;7.80;4.85;;;24.80;99.90;;;;;;4986627;28;20055;-80
2023/08/22 02:15:12;;;;;;;10.02;5.05;;;24.80;99.90;;;;;;4987237;28;20117;-81
2023/08/22 02:17:39;;;;;;;6.72;4.70;;;24.80;99.90;;;;;;4992775;28;20038;-80
2023/08/22 02:20:08;;;;;;;8.68;4.93;;;24.80;99.90;;;;;;4993571;28;20074;-80
2023/08/22 02:22:39;;;;;;;7.15;5.20;;;24.80;99.90;;;;;;4985047;28;20097;-80
2023/08/22 02:25:08;;;;;;;6.82;5.05;;;24.80;99.90;;;;;;4994738;28;20054;-80
2023/08/22 02:27:35;;;;;;;9.77;6.82;;;24.70;99.90;;;;;;4986123;28;20055;-80
2023/08/22 02:30:06;;;;;;;6.50;4.95;;;24.70;99.90;;;;;;4991161;28;20050;-80
2023/08/22 02:32:33;;;;;;;8.80;5.20;;;24.70;99.90;;;;;;4991180;28;20053;-81
2023/08/22 02:35:00;;;;;;;6.75;5.15;;;24.60;99.90;;;;;;4992791;28;20058;-80
2023/08/22 02:37:27;;;;;;;7.00;5.25;;;24.70;99.90;;;;;;4986762;28;20039;-81
2023/08/22 02:39:55;;;;;;;10.02;4.80;;;24.60;99.90;;;;;;4992763;28;20046;-80
2023/08/22 02:42:22;;;;;;;7.18;5.13;;;24.60;99.90;;;;;;4986611;28;20513;-81
2023/08/22 02:44:49;;;;;;;9.40;5.40;;;24.50;99.90;;;;;;4988051;28;20055;-80
2023/08/22 02:47:15;;;;;;;9.15;5.68;;;24.50;99.90;;;;;;4992048;28;20078;-79
2023/08/22 02:49:42;;;;;;;7.13;5.20;;;24.50;99.90;;;;;;4997688;28;20057;-81
2023/08/22 02:52:09;;;;;;;7.32;5.00;;;24.50;99.90;;;;;;4998790;28;20042;-81
2023/08/22 02:54:36;;;;;;;6.70;5.38;;;24.40;99.90;;;;;;5008357;28;20137;-80
2023/08/22 02:57:02;;;;;;;8.05;5.65;;;24.50;99.90;;;;;;5005960;28;20106;-80
2023/08/22 02:59:29;;;;;;;7.50;4.85;;;24.40;99.90;;;;;;5006456;28;20038;-79
2023/08/22 03:01:56;;;;;;;8.90;4.90;;;24.40;99.90;;;;;;4985950;28;20054;-80
2023/08/22 03:04:22;;;;;;;8.43;5.22;;;24.40;99.90;;;;;;4989867;28;20054;-80
2023/08/22 03:06:49;;;;;;;7.35;5.47;;;24.40;99.90;;;;;;4980993;28;20399;-80
2023/08/22 03:09:17;;;;;;;10.80;5.22;;;24.30;99.90;;;;;;4987001;28;20105;-80
2023/08/22 03:11:43;;;;;;;6.55;5.32;;;24.30;99.90;;;;;;4988998;28;20050;-81
2023/08/22 03:14:10;;;;;;;6.47;5.03;;;24.30;99.90;;;;;;4990455;28;20046;-80
2023/08/22 03:16:37;;;;;;;9.85;4.97;;;24.30;99.90;;;;;;4985413;28;20057;-80
2023/08/22 03:19:04;;;;;;;5.47;4.93;;;24.30;99.90;;;;;;4987885;28;20053;-81
2023/08/22 03:21:30;;;;;;;6.82;5.63;;;24.30;99.90;;;;;;4982886;28;20050;-80
2023/08/22 03:23:57;;;;;;;11.40;6.15;;;24.20;99.90;;;;;;4993897;28;20136;-80
2023/08/22 03:26:25;;;;;;;7.13;5.78;;;24.20;99.90;;;;;;4990535;28;20043;-80
2023/08/22 03:28:52;;;;;;;10.40;5.40;;;24.20;99.90;;;;;;4993517;28;20086;-80
2023/08/22 03:31:18;;;;;;;8.02;6.00;;;24.20;99.90;;;;;;4989131;28;20046;-80
2023/08/22 03:33:45;;;;;;;7.75;5.32;;;24.20;99.90;;;;;;4986305;28;20050;-80
2023/08/22 03:36:12;;;;;;;5.90;5.25;;;24.20;99.90;;;;;;4986094;28;20094;-81
2023/08/22 03:38:39;;;;;;;8.85;5.75;;;24.10;99.90;;;;;;4987102;28;20042;-80
2023/08/22 03:41:06;;;;;;;10.70;5.90;;;24.10;99.90;;;;;;4989929;28;20077;-80
2023/08/22 03:43:33;;;;;;;6.82;5.88;;;24.10;99.90;;;;;;4987843;28;20564;-81
2023/08/22 03:45:59;;;;;;;5.88;5.03;;;24.10;99.90;;;;;;4984312;28;20118;-80
2023/08/22 03:48:26;;;;;;;10.02;6.25;;;24.10;99.90;;;;;;4991929;28;20414;-80
2023/08/22 03:50:53;;;;;;;10.27;6.43;;;24.00;99.90;;;;;;4985090;28;20843;-80
2023/08/22 03:53:20;;;;;;;8.68;5.95;;;24.00;99.90;;;;;;4989143;28;20109;-80
2023/08/22 03:55:46;;;;;;;8.00;5.78;;;24.00;99.90;;;;;;4991466;28;20098;-80
2023/08/22 03:58:13;;;;;;;13.05;6.22;;;24.00;99.90;;;;;;4994411;28;20086;-80
2023/08/22 04:00:40;;;;;;;8.20;6.28;;;23.90;99.90;;;;;;4986739;28;20116;-80
2023/08/22 04:03:07;;;;;;;6.60;5.90;;;23.90;99.90;;;;;;4991871;28;20498;-80
2023/08/22 04:05:34;;;;;;;8.38;5.63;;;23.90;99.90;;;;;;4990681;28;20522;-80
2023/08/22 04:08:00;;;;;;;9.30;6.22;;;23.90;99.90;;;;;;4992679;28;20094;-80
2023/08/22 04:10:27;;;;;;;7.90;5.97;;;23.90;99.90;;;;;;4994897;28;20635;-80
2023/08/22 04:12:54;;;;;;;11.68;5.82;;;23.80;99.90;;;;;;4992685;28;20047;-80
2023/08/22 04:15:20;;;;;;;9.98;6.85;;;23.90;99.90;;;;;;4989053;28;20057;-81
2023/08/22 04:17:47;;;;;;;8.18;6.65;;;23.80;99.90;;;;;;4990320;28;20049;-80
2023/08/22 04:20:17;;;;;;;9.43;6.40;;;23.80;99.90;;;;;;4993521;28;20082;-80
2023/08/22 04:22:44;;;;;;;7.90;6.53;;;23.80;99.90;;;;;;4990066;28;20488;-81
2023/08/22 04:25:11;;;;;;;7.60;6.68;;;23.80;99.90;;;;;;4993827;28;20046;-81
2023/08/22 04:27:38;;;;;;;14.93;7.28;;;23.80;99.90;;;;;;4995812;28;20046;-81
2023/08/22 04:30:07;;;;;;;8.10;6.30;;;23.80;99.90;;;;;;4987330;28;20051;-81
2023/08/22 04:32:34;;;;;;;8.77;5.80;;;23.70;99.90;;;;;;4993742;28;20046;-81
2023/08/22 04:35:01;;;;;;;7.75;5.90;;;23.70;99.90;;;;;;4990514;28;20046;-81
2023/08/22 04:37:27;;;;;;;6.93;5.93;;;23.70;99.90;;;;;;4984330;28;20049;-81
2023/08/22 04:39:54;;;;;;;6.57;5.88;;;23.70;99.90;;;;;;4993051;28;20098;-81
2023/08/22 04:42:21;;;;;;;10.45;5.63;;;23.70;99.90;;;;;;4994811;28;20058;-81
2023/08/22 04:44:48;;;;;;;7.05;5.63;;;23.60;99.90;;;;;;4989925;28;20047;-81
2023/08/22 04:47:14;;;;;;;11.85;6.07;;;23.60;99.90;;;;;;5003507;28;20051;-81
2023/08/22 04:49:41;;;;;;;10.40;6.55;;;23.60;99.90;;;;;;5004430;28;20051;-81
2023/08/22 04:52:08;;;;;;;10.57;6.78;;;23.60;99.90;;;;;;5010775;28;20042;-81
2023/08/22 04:54:35;;;;;;;14.25;6.90;;;23.60;99.90;;;;;;5005552;28;20572;-81
2023/08/22 04:57:01;;;;;;;11.73;6.28;;;23.60;99.90;;;;;;5004969;28;20042;-81
2023/08/22 04:59:28;;;;;;;7.03;6.32;;;23.60;99.90;;;;;;4998351;28;20055;-81
2023/08/22 05:01:55;;;;;;;8.55;6.45;;;23.60;99.90;;;;;;4991007;28;20046;-81
2023/08/22 05:04:22;;;;;;;11.43;6.85;;;23.60;99.90;;;;;;4993082;28;20431;-81
2023/08/22 05:06:48;;;;;;;10.30;6.68;;;23.60;99.90;;;;;;4992894;28;20057;-80
2023/08/22 05:09:16;;;;;;;9.20;6.20;;;23.60;99.90;;;;;;4991622;28;20050;-81
2023/08/22 05:11:44;;;;;;;11.93;6.18;;;23.60;99.90;;;;;;4993466;28;20399;-81
2023/08/22 05:14:11;;;;;;;9.77;6.70;;;23.60;99.90;;;;;;4989875;28;20129;-81
2023/08/22 05:16:38;;;;;;;7.25;6.60;;;23.60;99.90;;;;;;4993461;28;20039;-81
2023/08/22 05:19:06;;;;;;;8.00;6.35;;;23.60;99.90;;;;;;4992372;28;20129;-81
2023/08/22 05:21:33;;;;;;;7.22;6.13;;;23.60;99.90;;;;;;4997397;28;20042;-81
2023/08/22 05:23:59;;;;;;;8.07;5.75;;;23.60;99.90;;;;;;4990744;28;20054;-81
2023/08/22 05:26:26;;;;;;;8.93;6.07;;;23.70;99.90;;;;;;4993785;28;20050;-81
2023/08/22 05:28:53;;;;;;;6.93;5.63;;;23.70;99.90;;;;;;4996088;28;20082;-81
2023/08/22 05:31:21;;;;;;;7.07;6.10;;;23.70;99.90;;;;;;5004164;28;20065;-82
2023/08/22 05:33:49;;;;;;;10.18;6.35;;;23.80;99.90;;;;;;5003462;28;20109;-81
2023/08/22 05:36:16;;;;;;;7.82;5.70;;;23.80;99.90;;;;;;5006215;28;20105;-81
2023/08/22 05:38:43;;;;;;;13.25;6.75;;;23.80;99.90;;;;;;5001960;28;20038;-81
2023/08/22 05:41:10;;;;;;;6.90;6.20;;;23.90;99.90;;;;;;5002670;28;20069;-81
2023/08/22 05:43:36;;;;;;;10.98;6.40;;;23.80;99.90;;;;;;4993319;28;20462;-81
2023/08/22 05:46:03;;;;;;;11.57;6.28;;;23.90;99.90;;;;;;4988069;28;20151;-81
2023/08/22 05:48:30;;;;;;;8.85;5.93;;;23.90;99.90;;;;;;4993484;28;20042;-81
2023/08/22 05:50:57;;;;;;;10.73;6.93;;;24.00;99.90;;;;;;4993406;28;20046;-82
2023/08/22 05:53:24;;;;;;;8.48;5.47;;;24.00;99.90;;;;;;4997837;28;20074;-81
2023/08/22 05:55:51;;;;;;;12.55;6.38;;;24.00;99.90;;;;;;4993073;28;20051;-81
2023/08/22 05:58:18;;;;;;;9.32;6.05;;;24.10;99.90;;;;;;4992400;28;20046;-81
2023/08/22 06:00:45;;;;;;;13.95;5.90;;;24.10;99.90;;;;;;4987877;28;20050;-81
2023/08/22 06:03:11;;;;;;;7.05;5.70;;;24.20;99.90;;;;;;4992554;28;20055;-81
2023/08/22 06:05:38;;;;;;;6.85;5.65;;;24.20;99.90;;;;;;4992724;28;20046;-81
2023/08/22 06:08:05;;;;;;;7.03;5.70;;;24.20;99.90;;;;;;4993173;28;20062;-81
2023/08/22 06:10:32;;;;;;;8.02;6.25;;;24.30;99.90;;;;;;4990497;28;20050;-81
2023/08/22 06:12:59;;;;;;;7.70;5.25;;;24.30;99.90;;;;;;4992288;28;20066;-81
2023/08/22 06:15:25;;;;;;;7.78;6.22;;;24.30;99.90;;;;;;5000460;28;20046;-80
2023/08/22 06:17:52;;;;;;;9.45;5.10;;;24.30;99.90;;;;;;4999477;28;20046;-80
2023/08/22 06:20:19;;;;;;;7.18;5.22;;;24.40;99.90;;;;;;4993761;28;20506;-80
2023/08/22 06:22:46;;;;;;;6.43;5.30;;;24.40;99.90;;;;;;4994883;28;20081;-81
2023/08/22 06:25:12;;;;;;;7.55;5.63;;;24.50;99.90;;;;;;4988314;28;20050;-81
2023/08/22 06:27:39;;;;;;;8.38;5.90;;;24.50;99.90;;;;;;4996290;28;20057;-81
2023/08/22 06:30:07;;;;;;;9.23;5.95;;;24.50;99.90;;;;;;4984592;28;20524;-81
2023/08/22 06:32:34;;;;;;;7.45;5.55;;;24.50;99.90;;;;;;4998274;28;20461;-81
2023/08/22 06:35:03;;;;;;;9.50;5.40;;;24.50;99.90;;;;;;4993967;28;20429;-80
2023/08/22 06:37:30;;;;;;;7.97;5.85;;;24.50;99.90;;;;;;4995459;28;20053;-80
2023/08/22 06:39:57;;;;;;;6.57;5.40;;;24.60;99.90;;;;;;4998704;28;20050;-80
2023/08/22 06:42:24;;;;;;;7.72;5.63;;;24.60;99.90;;;;;;4992890;28;20103;-80
2023/08/22 06:44:51;;;;;;;5.90;4.85;;;24.60;99.90;;;;;;4991744;28;20051;-81
2023/08/22 06:47:19;;;;;;;6.53;5.15;;;24.70;99.90;;;;;;4985797;28;20457;-81
2023/08/22 06:49:46;;;;;;;9.07;5.15;;;24.70;99.90;;;;;;4991505;28;20078;-80
2023/08/22 06:52:14;;;;;;;5.70;5.07;;;24.70;99.90;;;;;;4988640;28;20055;-81
2023/08/22 06:54:40;;;;;;;9.63;5.50;;;24.70;99.90;;;;;;4985170;28;20690;-81
2023/08/22 06:57:07;;;;;;;10.48;5.55;;;24.80;99.90;;;;;;4990252;28;20054;-80
2023/08/22 06:59:34;;;;;;;8.20;4.72;;;24.80;99.90;;;;;;4985082;28;20525;-81
2023/08/22 07:02:01;;;;;;;11.85;5.07;;;24.80;99.90;;;;;;4994788;28;20061;-81
2023/08/22 07:04:30;;;;;;;7.15;4.93;;;24.90;99.90;;;;;;4991710;28;20051;-81
2023/08/22 07:06:57;;;;;;;6.43;4.85;;;24.90;99.90;;;;;;4990104;28;20086;-81
2023/08/22 07:09:25;;;;;;;8.20;4.47;;;24.90;99.90;;;;;;4985275;28;20055;-81
2023/08/22 07:11:52;;;;;;;11.52;5.20;;;24.90;99.90;;;;;;4987842;28;20493;-80
2023/08/22 07:14:19;;;;;;;8.93;5.18;;;24.90;99.90;;;;;;4990080;28;20050;-81
2023/08/22 07:16:45;;;;;;;7.65;5.00;;;25.00;99.90;;;;;;4993045;28;20556;-80
2023/08/22 07:19:12;;;;;;;6.80;5.50;;;25.00;99.90;;;;;;4989910;28;20052;-80
2023/08/22 07:21:50;;;;;;;7.70;5.47;;;25.00;99.90;;;;;;4987540;28;20060;-80
2023/08/22 07:24:17;;;;;;;9.93;5.20;;;25.00;99.90;;;;;;4982511;28;20528;-80
2023/08/22 07:26:43;;;;;;;9.05;5.03;;;25.00;99.90;;;;;;5004292;28;20054;-81
2023/08/22 07:29:10;;;;;;;9.88;5.93;;;25.00;99.90;;;;;;4988159;28;20046;-81
2023/08/22 07:31:37;;;;;;;8.38;5.00;;;25.00;99.90;;;;;;4988502;28;20051;-81
2023/08/22 07:34:03;;;;;;;8.90;5.35;;;25.10;99.90;;;;;;4995032;28;20046;-81
2023/08/22 07:36:30;;;;;;;9.25;5.97;;;25.10;99.90;;;;;;4989837;28;20464;-80
2023/08/22 07:38:58;;;;;;;6.03;5.13;;;25.10;99.90;;;;;;4985362;28;20043;-81
2023/08/22 07:41:25;;;;;;;8.25;5.28;;;25.10;99.90;;;;;;4989885;28;20488;-81
2023/08/22 07:43:51;;;;;;;5.35;4.85;;;25.20;99.90;;;;;;4991542;28;20054;-81
2023/08/22 07:46:19;;;;;;;9.93;5.57;;;25.20;99.90;;;;;;4988670;28;20054;-81
2023/08/22 07:48:46;;;;;;;6.32;4.97;;;25.20;99.90;;;;;;4989214;28;20042;-81
2023/08/22 07:51:13;;;;;;;9.85;6.38;;;25.30;99.90;;;;;;4990910;28;20109;-81
2023/08/22 07:53:40;;;;;;;9.48;4.57;;;25.30;99.90;;;;;;4995529;28;20108;-81
2023/08/22 07:56:07;;;;;;;7.78;5.53;;;25.30;99.90;;;;;;4995715;28;20104;-80
2023/08/22 07:58:34;;;;;;;12.05;5.22;;;25.40;99.90;;;;;;4991718;28;20114;-81
2023/08/22 08:01:04;;;;;;;7.88;5.55;;;25.40;99.90;;;;;;4992090;28;20421;-81
2023/08/22 08:03:31;;;;;;;9.88;4.95;;;25.40;99.90;;;;;;4995112;28;20101;-81
2023/08/22 08:05:58;;;;;;;8.00;5.53;;;25.50;99.90;;;;;;5003989;28;20217;-81
2023/08/22 08:08:25;;;;;;;7.75;5.18;;;25.50;99.90;;;;;;5007214;28;20051;-81
2023/08/22 08:10:52;;;;;;;7.82;5.35;;;25.60;99.90;;;;;;5006433;28;20501;-82
2023/08/22 08:13:19;;;;;;;8.75;5.43;;;25.60;99.90;;;;;;5003840;28;20078;-81
2023/08/22 08:15:45;;;;;;;7.18;5.22;;;25.60;99.90;;;;;;5000921;28;20050;-81
2023/08/22 08:18:14;;;;;;;7.65;5.22;;;25.70;99.90;;;;;;4990411;28;20438;-80
2023/08/22 08:20:43;;;;;;;12.37;5.93;;;25.70;99.90;;;;;;4991984;28;20070;-81
2023/08/22 08:23:10;;;;;;;10.02;5.65;;;25.80;99.90;;;;;;4986733;28;20337;-80
2023/08/22 08:25:37;;;;;;;11.95;5.55;;;25.70;99.90;;;;;;4988902;28;20050;-80
2023/08/22 08:28:05;;;;;;;7.35;5.80;;;25.80;99.90;;;;;;4990740;28;20054;-82
2023/08/22 08:30:32;;;;;;;7.63;5.53;;;25.90;99.90;;;;;;4990373;28;20061;-81
2023/08/22 08:33:03;;;;;;;10.18;5.72;;;25.90;99.90;;;;;;4986361;28;20061;-81
2023/08/22 08:35:30;;;;;;;8.30;5.07;;;25.90;99.90;;;;;;4989047;28;20509;-81
2023/08/22 08:37:57;;;;;;;11.15;5.07;;;26.00;99.90;;;;;;4988196;28;20042;-81
2023/08/22 08:40:24;;;;;;;7.75;4.85;;;26.00;99.90;;;;;;4992985;28;20043;-81
2023/08/22 08:42:50;;;;;;;7.90;4.88;;;26.10;99.90;;;;;;4990865;28;20104;-81
2023/08/22 08:45:18;;;;;;;10.32;5.55;;;26.10;99.90;;;;;;4989214;28;20422;-81
2023/08/22 08:47:45;;;;;;;8.10;5.15;;;26.10;99.90;;;;;;4990027;28;20078;-81
2023/08/22 08:50:13;;;;;;;6.28;4.40;;;26.20;99.90;;;;;;4996079;28;20046;-81
2023/08/22 08:52:45;;;;;;;6.55;5.00;;;26.20;99.90;;;;;;4994943;28;20092;-81
2023/08/22 08:55:12;;;;;;;5.95;4.68;;;26.30;99.90;;;;;;4989835;28;20454;-80
2023/08/22 08:57:39;;;;;;;7.10;5.13;;;26.30;99.90;;;;;;4993438;28;20425;-81
2023/08/22 09:00:06;;;;;;;8.02;5.22;;;26.40;99.90;;;;;;4993807;28;20066;-81
2023/08/22 09:02:33;;;;;;;8.00;4.82;;;26.40;99.90;;;;;;4988824;28;20050;-81
2023/08/22 09:05:00;;;;;;;11.70;5.68;;;26.40;99.90;;;;;;4998521;28;20050;-81
2023/08/22 09:07:27;;;;;;;7.03;4.88;;;26.60;99.90;;;;;;4989762;28;20046;-81
2023/08/22 09:09:55;;;;;;;6.25;4.43;;;26.50;99.90;;;;;;4991920;28;20046;-81
2023/08/22 09:12:21;;;;;;;5.22;4.53;;;26.60;99.90;;;;;;4992051;28;20055;-81
2023/08/22 09:14:48;;;;;;;6.57;4.07;;;26.70;99.90;;;;;;4997096;28;20462;-80
2023/08/22 09:17:16;;;;;;;9.07;4.28;;;26.70;99.90;;;;;;4986750;28;20662;-81
2023/08/22 09:19:44;;;;;;;5.95;3.85;;;26.70;99.90;;;;;;4990873;28;20047;-81
2023/08/22 09:22:15;;;;;;;8.18;3.63;;;26.80;99.90;;;;;;4990772;28;20050;-82
2023/08/22 09:24:53;;;;;;;6.15;4.07;;;26.90;99.90;;;;;;4998877;28;20047;-82
2023/08/22 09:27:29;;;;;;;8.23;4.20;;;27.00;99.90;;;;;;4997515;28;20133;-82
2023/08/22 09:30:04;;;;;;;6.40;3.97;;;26.90;99.90;;;;;;4997648;28;20080;-81
2023/08/22 09:32:31;;;;;;;8.43;4.28;;;27.00;99.90;;;;;;5005610;28;20469;-82
2023/08/22 09:35:01;;;;;;;6.32;4.60;;;27.10;99.90;;;;;;4990513;28;20042;-82
2023/08/22 09:37:35;;;;;;;8.15;4.20;;;27.10;99.90;;;;;;4991936;28;20106;-81
2023/08/22 09:40:13;;;;;;;7.53;4.50;;;27.20;99.90;;;;;;4993377;28;20042;-81
2023/08/22 09:42:41;;;;;;;12.20;4.30;;;27.20;99.90;;;;;;4989505;28;20138;-81
2023/08/22 09:45:09;;;;;;;9.60;4.22;;;27.20;99.90;;;;;;4993099;28;20469;-81
2023/08/22 09:47:42;;;;;;;10.25;4.70;;;27.30;99.90;;;;;;4987103;28;20055;-82
2023/08/22 09:50:12;;;;;;;7.72;4.25;;;27.30;99.90;;;;;;4990379;28;20046;-81
2023/08/22 09:52:40;;;;;;;6.50;4.47;;;27.40;99.90;;;;;;4993624;28;20065;-81
2023/08/22 09:55:10;;;;;;;8.95;3.88;;;27.40;99.90;;;;;;4989793;28;20080;-82
2023/08/22 09:57:38;;;;;;;12.00;4.72;;;27.50;99.90;;;;;;4987987;28;20045;-81
2023/08/22 10:00:07;;;;;;;9.32;4.20;;;27.60;99.90;;;;;;4993017;28;20051;-81
2023/08/22 10:02:35;;;;;;;8.00;3.83;;;27.60;99.90;;;;;;4986360;28;20054;-81
2023/08/22 10:05:03;;;;;;;8.85;5.15;;;27.70;99.90;;;;;;4993646;28;20046;-81
2023/08/22 10:07:30;;;;;;;7.55;4.20;;;27.70;99.90;;;;;;4995231;28;20108;-81
2023/08/22 10:09:57;;;;;;;7.70;4.03;;;27.70;99.90;;;;;;4999115;28;20077;-81
2023/08/22 10:12:25;;;;;;;6.72;4.32;;;27.80;99.90;;;;;;4991782;28;20124;-82
2023/08/22 10:14:57;;;;;;;8.27;4.47;;;27.80;99.90;;;;;;4994474;28;20045;-81
2023/08/22 10:17:28;;;;;;;7.30;4.50;;;27.80;99.90;;;;;;4987022;28;20038;-81
2023/08/22 10:20:04;;;;;;;6.80;4.85;;;27.80;99.90;;;;;;5009959;28;20142;-81
2023/08/22 10:22:33;;;;;;;9.70;5.00;;;27.90;99.90;;;;;;4992029;28;20418;-82
2023/08/22 10:25:04;;;;;;;9.35;4.72;;;27.90;99.90;;;;;;5008145;28;20054;-81
2023/08/22 10:27:32;;;;;;;12.15;4.85;;;27.90;99.90;;;;;;4987804;28;20061;-81
2023/08/22 10:30:15;;;;;;;9.35;4.95;;;28.00;99.90;;;;;;4995780;28;20050;-81
2023/08/22 10:33:03;;;;;;;6.53;4.65;;;28.00;99.90;;;;;;5008371;28;20483;-82
2023/08/22 10:36:22;;;;;;;7.07;5.22;;;28.10;99.90;;;;;;4994258;28;20391;-81
2023/08/22 10:38:57;;;;;;;12.38;4.93;;;28.10;99.90;;;;;;4994159;28;20422;-81
2023/08/22 10:41:53;;;;;;;8.45;4.80;;;28.20;99.90;;;;;;4989746;28;20689;-82
2023/08/22 10:44:26;;;;;;;8.65;4.78;;;28.20;99.90;;;;;;4992990;28;20062;-82
2023/08/22 10:47:04;;;;;;;11.10;4.57;;;28.30;99.90;;;;;;4985983;28;20062;-81
2023/08/22 10:49:32;;;;;;;7.63;4.65;;;28.30;99.90;;;;;;4995546;28;20050;-82
2023/08/22 10:52:04;;;;;;;9.18;5.65;;;28.40;99.90;;;;;;4996173;28;20054;-81
2023/08/22 10:54:31;;;;;;;8.32;4.82;;;28.50;99.90;;;;;;4994516;28;20070;-82
2023/08/22 10:57:17;;;;;;;9.15;4.63;;;28.60;99.90;;;;;;4989141;28;20055;-82
2023/08/22 10:59:58;;;;;;;10.95;5.15;;;28.70;99.90;;;;;;4991956;28;20073;-82
2023/08/22 11:02:29;;;;;;;11.27;5.55;;;28.70;99.90;;;;;;4987345;28;20043;-82
2023/08/22 11:04:57;;;;;;;8.13;5.47;;;28.80;99.90;;;;;;4998250;28;20098;-81
2023/08/22 11:07:25;;;;;;;10.82;5.47;;;28.80;99.90;;;;;;4991509;28;20070;-81
2023/08/22 11:09:58;;;;;;;8.75;5.40;;;28.90;99.90;;;;;;4992611;28;20047;-82
2023/08/22 11:12:27;;;;;;;8.45;5.15;;;28.90;99.90;;;;;;4985731;28;20105;-82
2023/08/22 11:14:57;;;;;;;10.68;4.85;;;28.90;99.90;;;;;;4990877;28;20054;-82
2023/08/22 11:17:24;;;;;;;7.72;5.35;;;28.90;99.90;;;;;;4987095;28;20050;-81
2023/08/22 11:19:55;;;;;;;5.70;4.45;;;29.00;99.90;;;;;;4997948;28;20046;-82
2023/08/22 11:22:22;;;;;;;4.75;4.25;;;29.10;99.90;;;;;;4992465;28;20046;-82
2023/08/22 11:24:51;;;;;;;8.80;4.75;;;29.20;99.90;;;;;;4987018;28;20054;-80
2023/08/22 11:27:19;;;;;;;7.68;4.47;;;29.20;99.90;;;;;;4987412;28;20105;-82
2023/08/22 11:29:49;;;;;;;8.52;4.28;;;29.30;99.90;;;;;;4989806;28;20054;-82
2023/08/22 11:32:30;;;;;;;9.82;4.55;;;29.40;99.90;;;;;;4988971;28;20046;-79
2023/08/22 11:35:03;;;;;;;11.63;4.20;;;29.40;99.90;;;;;;4987693;28;20053;-79
2023/08/22 11:37:32;;;;;;;12.38;4.45;;;29.50;99.90;;;;;;4995565;28;20045;-79
2023/08/22 11:39:59;;;;;;;7.40;4.05;;;29.50;99.90;;;;;;4988458;28;20093;-79
2023/08/22 11:42:30;;;;;;;6.50;4.43;;;29.60;99.90;;;;;;4984116;28;20414;-79
2023/08/22 11:45:08;;;;;;;9.10;4.78;;;29.60;99.90;;;;;;4987997;28;20049;-79
2023/08/22 11:48:01;;;;;;;8.32;4.10;;;29.60;99.90;;;;;;4989414;28;20050;-79
2023/08/22 11:50:29;;;;;;;7.80;3.72;;;29.80;99.90;;;;;;4984490;28;20568;-79
2023/08/22 11:53:09;;;;;;;4.90;4.22;;;29.80;99.90;;;;;;4990406;28;20138;-79
2023/08/22 11:55:39;;;;;;;5.78;4.10;;;29.80;99.90;;;;;;4981383;28;20043;-79
2023/08/22 11:58:09;;;;;;;6.50;3.63;;;30.00;99.90;;;;;;4991922;28;20050;-79
2023/08/22 12:00:35;;;;;;;6.68;4.35;;;30.00;99.90;;;;;;4991674;28;20047;-79
2023/08/22 12:03:05;;;;;;;6.82;3.85;;;30.00;99.90;;;;;;4991232;28;20052;-79
2023/08/22 12:05:35;;;;;;;7.07;3.95;;;30.00;99.90;;;;;;4987342;28;20043;-79
2023/08/22 12:08:11;;;;;;;6.77;3.20;;;30.00;99.90;;;;;;4988471;28;20098;-79
2023/08/22 12:10:48;;;;;;;5.78;3.50;;;30.00;99.90;;;;;;4980767;28;20047;-79
2023/08/22 12:13:21;;;;;;;7.80;4.15;;;30.00;99.90;;;;;;4988175;28;20050;-79
2023/08/22 12:15:49;;;;;;;5.78;3.35;;;30.10;99.90;;;;;;4991007;28;20053;-80
2023/08/22 12:18:17;;;;;;;7.90;3.75;;;30.10;99.90;;;;;;4991306;28;20046;-80
2023/08/22 12:20:45;;;;;;;4.82;3.50;;;30.20;99.90;;;;;;4987829;28;20059;-79
2023/08/22 12:23:13;;;;;;;5.68;3.28;;;30.20;99.90;;;;;;4992676;28;20093;-80
2023/08/22 12:25:42;;;;;;;7.57;3.72;;;30.30;99.90;;;;;;4990674;28;20086;-79
2023/08/22 12:28:09;;;;;;;3.47;3.17;;;30.30;99.90;;;;;;5000727;28;20115;-79
2023/08/22 12:30:38;;;;;;;4.97;3.38;;;30.30;99.90;;;;;;5005688;28;20046;-79
2023/08/22 12:33:07;;;;;;;6.15;3.60;;;30.30;99.90;;;;;;4997558;28;20046;-79
2023/08/22 12:35:36;;;;;;;7.43;3.20;;;30.40;99.90;;;;;;4992014;28;20039;-78
2023/08/22 12:38:03;;;;;;;5.53;3.13;;;30.40;99.90;;;;;;4994591;28;20054;-80
2023/08/22 12:40:30;;;;;;;4.78;3.20;;;30.40;99.90;;;;;;4988657;28;20105;-80
2023/08/22 12:42:58;;;;;;;5.28;3.30;;;30.50;99.90;;;;;;4996008;28;20579;-78
2023/08/22 12:45:26;;;;;;;3.80;3.20;;;30.50;99.90;;;;;;4993373;28;20452;-79
2023/08/22 12:47:53;;;;;;;4.65;2.83;;;30.40;99.90;;;;;;4989707;28;20051;-80
2023/08/22 12:50:20;;;;;;;7.80;3.20;;;30.50;99.90;;;;;;4989925;28;20587;-80
2023/08/22 12:52:46;;;;;;;4.93;2.78;;;30.50;99.90;;;;;;4996777;28;20069;-79